sensor_id;sensor_type;location;lat;lon;timestamp;pressure;altitude;pressure_sealevel;temperature;humidity
9672;BME280;4874;43.568;27.824;2023-01-10T00:02:15;98637.00;;;7.59;100.00
9672;BME280;4874;43.568;27.824;2023-01-10T00:04:44;98624.75;;;7.58;100.00
9672;BME280;4874;43.568;27.824;2023-01-10T00:07:10;98629.97;;;7.78;100.00
9672;BME280;4874;43.568;27.824;2023-01-10T00:09:38;98632.56;;;7.59;100.00
9672;BME280;4874;43.568;27.824;2023-01-10T00:12:05;98634.63;;;7.56;100.00
9672;BME280;4874;43.568;27.824;2023-01-10T00:14:50;98617.38;;;7.52;100.00
9672;BME280;4874;43.568;27.824;2023-01-10T00:17:18;98572.84;;;7.38;100.00
9672;BME280;4874;43.568;27.824;2023-01-10T00:19:46;98623.38;;;7.63;100.00
9672;BME280;4874;43.568;27.824;2023-01-10T00:22:13;98622.66;;;7.52;100.00
9672;BME280;4874;43.568;27.824;2023-01-10T00:24:39;98602.53;;;7.51;100.00
9672;BME280;4874;43.568;27.824;2023-01-10T00:27:07;98606.75;;;7.72;100.00
9672;BME280;4874;43.568;27.824;2023-01-10T00:29:35;98586.41;;;7.63;100.00
9672;BME280;4874;43.568;27.824;2023-01-10T00:32:01;98602.59;;;7.89;100.00
9672;BME280;4874;43.568;27.824;2023-01-10T00:34:28;98603.00;;;7.94;100.00
9672;BME280;4874;43.568;27.824;2023-01-10T00:36:56;98598.66;;;7.74;100.00
9672;BME280;4874;43.568;27.824;2023-01-10T00:39:23;98593.25;;;7.66;100.00
9672;BME280;4874;43.568;27.824;2023-01-10T00:41:52;98597.44;;;7.78;100.00
9672;BME280;4874;43.568;27.824;2023-01-10T00:44:38;98604.09;;;7.82;100.00
9672;BME280;4874;43.568;27.824;2023-01-10T00:47:04;98601.22;;;7.85;100.00
9672;BME280;4874;43.568;27.824;2023-01-10T00:49:31;98598.69;;;7.83;100.00
9672;BME280;4874;43.568;27.824;2023-01-10T00:51:58;98598.53;;;7.75;100.00
9672;BME280;4874;43.568;27.824;2023-01-10T00:54:25;98573.91;;;7.65;100.00
9672;BME280;4874;43.568;27.824;2023-01-10T00:56:52;98610.38;;;7.81;100.00
9672;BME280;4874;43.568;27.824;2023-01-10T00:59:18;98599.25;;;7.87;100.00
9672;BME280;4874;43.568;27.824;2023-01-10T01:01:45;98606.50;;;7.94;100.00
9672;BME280;4874;43.568;27.824;2023-01-10T01:04:12;98529.38;;;7.42;100.00
9672;BME280;4874;43.568;27.824;2023-01-10T01:06:39;98509.38;;;7.58;100.00
9672;BME280;4874;43.568;27.824;2023-01-10T01:09:06;98593.16;;;7.86;100.00
9672;BME280;4874;43.568;27.824;2023-01-10T01:11:33;98600.94;;;7.97;100.00
9672;BME280;4874;43.568;27.824;2023-01-10T01:13:59;98598.03;;;8.10;100.00
9672;BME280;4874;43.568;27.824;2023-01-10T01:16:26;98595.78;;;7.86;100.00
9672;BME280;4874;43.568;27.824;2023-01-10T01:18:53;98577.25;;;7.77;100.00
9672;BME280;4874;43.568;27.824;2023-01-10T01:21:19;98585.06;;;7.97;100.00
9672;BME280;4874;43.568;27.824;2023-01-10T01:23:46;98588.84;;;7.95;100.00
9672;BME280;4874;43.568;27.824;2023-01-10T01:26:13;98580.06;;;7.94;100.00
9672;BME280;4874;43.568;27.824;2023-01-10T01:28:40;98599.66;;;7.92;100.00
9672;BME280;4874;43.568;27.824;2023-01-10T01:31:08;98595.41;;;8.00;100.00
9672;BME280;4874;43.568;27.824;2023-01-10T01:33:35;98581.75;;;8.05;100.00
9672;BME280;4874;43.568;27.824;2023-01-10T01:36:07;98584.25;;;7.97;100.00
9672;BME280;4874;43.568;27.824;2023-01-10T01:38:35;98583.53;;;7.85;100.00
9672;BME280;4874;43.568;27.824;2023-01-10T01:41:02;98592.41;;;7.75;100.00
9672;BME280;4874;43.568;27.824;2023-01-10T01:43:30;98551.78;;;7.57;100.00
9672;BME280;4874;43.568;27.824;2023-01-10T01:46:01;98586.59;;;7.81;100.00
9672;BME280;4874;43.568;27.824;2023-01-10T01:48:38;98572.69;;;7.79;100.00
9672;BME280;4874;43.568;27.824;2023-01-10T01:51:09;98583.09;;;7.71;100.00
9672;BME280;4874;43.568;27.824;2023-01-10T01:53:45;98566.72;;;7.96;100.00
9672;BME280;4874;43.568;27.824;2023-01-10T01:56:22;98525.94;;;7.70;100.00
9672;BME280;4874;43.568;27.824;2023-01-10T02:01:26;98565.75;;;7.97;100.00
9672;BME280;4874;43.568;27.824;2023-01-10T02:04:00;98563.69;;;8.00;100.00
9672;BME280;4874;43.568;27.824;2023-01-10T02:06:28;98560.47;;;7.97;100.00
9672;BME280;4874;43.568;27.824;2023-01-10T02:09:06;98561.44;;;7.96;100.00
9672;BME280;4874;43.568;27.824;2023-01-10T02:11:34;98555.19;;;8.06;100.00
9672;BME280;4874;43.568;27.824;2023-01-10T02:14:04;98540.84;;;7.99;100.00
9672;BME280;4874;43.568;27.824;2023-01-10T02:16:31;98538.91;;;8.11;100.00
9672;BME280;4874;43.568;27.824;2023-01-10T02:18:58;98520.38;;;7.92;100.00
9672;BME280;4874;43.568;27.824;2023-01-10T02:27:21;98536.72;;;8.25;100.00
9672;BME280;4874;43.568;27.824;2023-01-10T02:41:12;98536.66;;;8.54;100.00
9672;BME280;4874;43.568;27.824;2023-01-10T02:43:52;98514.66;;;8.54;100.00
9672;BME280;4874;43.568;27.824;2023-01-10T02:46:24;98542.75;;;8.74;100.00
9672;BME280;4874;43.568;27.824;2023-01-10T02:48:53;98542.88;;;8.82;100.00
9672;BME280;4874;43.568;27.824;2023-01-10T02:51:23;98536.47;;;8.75;100.00
9672;BME280;4874;43.568;27.824;2023-01-10T03:10:13;98541.63;;;8.86;100.00
9672;BME280;4874;43.568;27.824;2023-01-10T03:13:09;98541.34;;;9.16;100.00
9672;BME280;4874;43.568;27.824;2023-01-10T03:15:39;98544.75;;;9.08;100.00
9672;BME280;4874;43.568;27.824;2023-01-10T03:18:13;98512.91;;;8.91;100.00
9672;BME280;4874;43.568;27.824;2023-01-10T03:20:43;98514.31;;;8.85;100.00
9672;BME280;4874;43.568;27.824;2023-01-10T03:23:14;98532.47;;;9.07;100.00
9672;BME280;4874;43.568;27.824;2023-01-10T03:25:42;98535.19;;;9.25;100.00
9672;BME280;4874;43.568;27.824;2023-01-10T03:28:15;98534.69;;;9.12;100.00
9672;BME280;4874;43.568;27.824;2023-01-10T03:30:48;98538.72;;;9.16;100.00
9672;BME280;4874;43.568;27.824;2023-01-10T03:33:22;98526.56;;;9.23;100.00
9672;BME280;4874;43.568;27.824;2023-01-10T03:38:53;98525.91;;;9.11;100.00
9672;BME280;4874;43.568;27.824;2023-01-10T03:44:30;98526.09;;;9.27;100.00
9672;BME280;4874;43.568;27.824;2023-01-10T03:50:03;98525.09;;;9.38;100.00
9672;BME280;4874;43.568;27.824;2023-01-10T03:52:33;98521.94;;;9.25;100.00
9672;BME280;4874;43.568;27.824;2023-01-10T03:55:01;98520.81;;;9.27;100.00
9672;BME280;4874;43.568;27.824;2023-01-10T03:57:30;98518.16;;;9.27;100.00
9672;BME280;4874;43.568;27.824;2023-01-10T03:59:58;98493.53;;;9.17;100.00
9672;BME280;4874;43.568;27.824;2023-01-10T04:02:27;98507.03;;;9.24;100.00
9672;BME280;4874;43.568;27.824;2023-01-10T04:04:54;98512.13;;;9.35;100.00
9672;BME280;4874;43.568;27.824;2023-01-10T04:07:21;98506.00;;;9.34;100.00
9672;BME280;4874;43.568;27.824;2023-01-10T04:09:48;98511.25;;;9.44;100.00
9672;BME280;4874;43.568;27.824;2023-01-10T04:12:15;98500.44;;;9.37;100.00
9672;BME280;4874;43.568;27.824;2023-01-10T04:14:43;98450.91;;;9.38;100.00
9672;BME280;4874;43.568;27.824;2023-01-10T04:17:14;98495.31;;;9.71;100.00
9672;BME280;4874;43.568;27.824;2023-01-10T04:19:41;98495.91;;;9.47;100.00
9672;BME280;4874;43.568;27.824;2023-01-10T04:22:08;98497.66;;;9.74;100.00
9672;BME280;4874;43.568;27.824;2023-01-10T04:24:35;98487.22;;;9.73;100.00
9672;BME280;4874;43.568;27.824;2023-01-10T04:27:01;98508.78;;;9.78;100.00
9672;BME280;4874;43.568;27.824;2023-01-10T04:29:28;98498.13;;;9.87;100.00
9672;BME280;4874;43.568;27.824;2023-01-10T04:31:55;98496.63;;;9.85;100.00
9672;BME280;4874;43.568;27.824;2023-01-10T04:34:21;98475.31;;;9.59;100.00
9672;BME280;4874;43.568;27.824;2023-01-10T04:36:48;98490.88;;;9.72;100.00
9672;BME280;4874;43.568;27.824;2023-01-10T04:39:16;98481.50;;;9.50;100.00
9672;BME280;4874;43.568;27.824;2023-01-10T04:41:42;98490.91;;;9.62;100.00
9672;BME280;4874;43.568;27.824;2023-01-10T04:44:09;98492.91;;;9.78;100.00
9672;BME280;4874;43.568;27.824;2023-01-10T04:46:36;98504.88;;;9.82;100.00
9672;BME280;4874;43.568;27.824;2023-01-10T04:49:02;98491.53;;;9.91;100.00
9672;BME280;4874;43.568;27.824;2023-01-10T04:51:29;98488.19;;;9.89;100.00
9672;BME280;4874;43.568;27.824;2023-01-10T04:53:56;98482.06;;;9.71;100.00
9672;BME280;4874;43.568;27.824;2023-01-10T04:56:22;98509.03;;;9.84;100.00
9672;BME280;4874;43.568;27.824;2023-01-10T04:58:49;98487.66;;;9.86;100.00
9672;BME280;4874;43.568;27.824;2023-01-10T05:01:21;98506.47;;;9.75;100.00
9672;BME280;4874;43.568;27.824;2023-01-10T05:03:51;98505.41;;;9.85;100.00
9672;BME280;4874;43.568;27.824;2023-01-10T05:06:19;98501.91;;;10.02;100.00
9672;BME280;4874;43.568;27.824;2023-01-10T05:08:45;98491.09;;;9.78;100.00
9672;BME280;4874;43.568;27.824;2023-01-10T05:11:12;98491.78;;;9.80;100.00
9672;BME280;4874;43.568;27.824;2023-01-10T05:13:39;98480.09;;;9.73;100.00
9672;BME280;4874;43.568;27.824;2023-01-10T05:16:06;98472.84;;;10.10;100.00
9672;BME280;4874;43.568;27.824;2023-01-10T05:18:33;98481.50;;;10.12;100.00
9672;BME280;4874;43.568;27.824;2023-01-10T05:21:08;98476.31;;;9.93;100.00
9672;BME280;4874;43.568;27.824;2023-01-10T05:23:36;98479.97;;;10.10;100.00
9672;BME280;4874;43.568;27.824;2023-01-10T05:26:08;98450.72;;;9.84;100.00
9672;BME280;4874;43.568;27.824;2023-01-10T05:28:35;98477.44;;;9.91;100.00
9672;BME280;4874;43.568;27.824;2023-01-10T05:31:04;98476.22;;;10.03;100.00
9672;BME280;4874;43.568;27.824;2023-01-10T05:33:31;98488.06;;;9.73;100.00
9672;BME280;4874;43.568;27.824;2023-01-10T05:36:01;98476.75;;;9.71;100.00
9672;BME280;4874;43.568;27.824;2023-01-10T05:38:29;98479.06;;;9.84;100.00
9672;BME280;4874;43.568;27.824;2023-01-10T05:40:56;98457.00;;;9.66;100.00
9672;BME280;4874;43.568;27.824;2023-01-10T05:43:25;98435.47;;;9.33;100.00
9672;BME280;4874;43.568;27.824;2023-01-10T05:45:52;98460.16;;;9.51;100.00
9672;BME280;4874;43.568;27.824;2023-01-10T05:48:18;98483.94;;;9.43;100.00
9672;BME280;4874;43.568;27.824;2023-01-10T05:50:45;98481.72;;;9.39;100.00
9672;BME280;4874;43.568;27.824;2023-01-10T05:53:14;98468.16;;;9.24;100.00
9672;BME280;4874;43.568;27.824;2023-01-10T05:55:41;98468.91;;;9.34;100.00
9672;BME280;4874;43.568;27.824;2023-01-10T05:58:07;98472.56;;;9.33;100.00
9672;BME280;4874;43.568;27.824;2023-01-10T06:00:36;98468.00;;;9.26;100.00
9672;BME280;4874;43.568;27.824;2023-01-10T06:03:05;98465.31;;;9.35;100.00
9672;BME280;4874;43.568;27.824;2023-01-10T06:05:32;98471.41;;;9.36;100.00
9672;BME280;4874;43.568;27.824;2023-01-10T06:07:58;98464.66;;;9.51;100.00
9672;BME280;4874;43.568;27.824;2023-01-10T06:10:25;98469.28;;;9.67;100.00
9672;BME280;4874;43.568;27.824;2023-01-10T06:12:52;98471.81;;;9.59;100.00
9672;BME280;4874;43.568;27.824;2023-01-10T06:15:19;98470.88;;;9.60;100.00
9672;BME280;4874;43.568;27.824;2023-01-10T06:17:45;98463.13;;;9.48;100.00
9672;BME280;4874;43.568;27.824;2023-01-10T06:20:12;98470.53;;;9.45;100.00
9672;BME280;4874;43.568;27.824;2023-01-10T06:22:39;98479.47;;;9.44;100.00
9672;BME280;4874;43.568;27.824;2023-01-10T06:25:09;98477.59;;;9.54;100.00
9672;BME280;4874;43.568;27.824;2023-01-10T06:27:42;98477.81;;;9.61;100.00
9672;BME280;4874;43.568;27.824;2023-01-10T06:30:11;98481.19;;;9.53;100.00
9672;BME280;4874;43.568;27.824;2023-01-10T06:32:38;98490.06;;;9.62;100.00
9672;BME280;4874;43.568;27.824;2023-01-10T06:35:06;98499.84;;;9.61;100.00
9672;BME280;4874;43.568;27.824;2023-01-10T06:37:33;98496.13;;;9.54;100.00
9672;BME280;4874;43.568;27.824;2023-01-10T06:40:00;98478.94;;;9.40;100.00
9672;BME280;4874;43.568;27.824;2023-01-10T06:42:27;98493.94;;;9.67;100.00
9672;BME280;4874;43.568;27.824;2023-01-10T06:44:54;98491.00;;;9.52;100.00
9672;BME280;4874;43.568;27.824;2023-01-10T06:47:21;98477.97;;;9.59;100.00
9672;BME280;4874;43.568;27.824;2023-01-10T06:49:47;98487.56;;;9.60;100.00
9672;BME280;4874;43.568;27.824;2023-01-10T06:52:14;98497.34;;;9.77;100.00
9672;BME280;4874;43.568;27.824;2023-01-10T06:54:40;98494.03;;;9.75;100.00
9672;BME280;4874;43.568;27.824;2023-01-10T06:57:08;98498.25;;;9.86;100.00
9672;BME280;4874;43.568;27.824;2023-01-10T06:59:34;98498.50;;;9.75;100.00
9672;BME280;4874;43.568;27.824;2023-01-10T07:02:01;98509.34;;;9.99;100.00
9672;BME280;4874;43.568;27.824;2023-01-10T07:04:28;98517.75;;;9.77;100.00
9672;BME280;4874;43.568;27.824;2023-01-10T07:06:55;98521.69;;;10.08;100.00
9672;BME280;4874;43.568;27.824;2023-01-10T07:09:21;98516.16;;;10.01;100.00
9672;BME280;4874;43.568;27.824;2023-01-10T07:11:48;98510.56;;;9.87;100.00
9672;BME280;4874;43.568;27.824;2023-01-10T07:14:15;98505.69;;;9.82;100.00
9672;BME280;4874;43.568;27.824;2023-01-10T07:16:41;98510.56;;;9.87;100.00
9672;BME280;4874;43.568;27.824;2023-01-10T07:19:08;98525.03;;;10.10;100.00
9672;BME280;4874;43.568;27.824;2023-01-10T07:21:35;98527.97;;;10.07;100.00
9672;BME280;4874;43.568;27.824;2023-01-10T07:24:01;98512.91;;;9.90;100.00
9672;BME280;4874;43.568;27.824;2023-01-10T07:26:28;98521.97;;;10.05;100.00
9672;BME280;4874;43.568;27.824;2023-01-10T07:28:55;98487.91;;;9.75;100.00
9672;BME280;4874;43.568;27.824;2023-01-10T07:31:22;98529.81;;;10.24;100.00
9672;BME280;4874;43.568;27.824;2023-01-10T07:33:50;98546.19;;;10.19;100.00
9672;BME280;4874;43.568;27.824;2023-01-10T07:36:18;98539.84;;;10.12;100.00
9672;BME280;4874;43.568;27.824;2023-01-10T07:38:45;98544.59;;;10.09;100.00
9672;BME280;4874;43.568;27.824;2023-01-10T07:41:12;98530.88;;;10.13;100.00
9672;BME280;4874;43.568;27.824;2023-01-10T07:43:38;98533.91;;;10.18;100.00
9672;BME280;4874;43.568;27.824;2023-01-10T07:46:06;98531.41;;;10.17;100.00
9672;BME280;4874;43.568;27.824;2023-01-10T07:48:38;98551.94;;;10.32;100.00
9672;BME280;4874;43.568;27.824;2023-01-10T07:51:07;98523.91;;;10.12;100.00
9672;BME280;4874;43.568;27.824;2023-01-10T07:53:34;98531.94;;;10.20;100.00
9672;BME280;4874;43.568;27.824;2023-01-10T07:56:02;98540.59;;;10.22;100.00
9672;BME280;4874;43.568;27.824;2023-01-10T07:58:29;98535.72;;;10.00;100.00
9672;BME280;4874;43.568;27.824;2023-01-10T08:00:57;98538.72;;;10.05;100.00
9672;BME280;4874;43.568;27.824;2023-01-10T08:03:24;98538.41;;;10.18;100.00
9672;BME280;4874;43.568;27.824;2023-01-10T08:06:03;98519.69;;;10.19;100.00
9672;BME280;4874;43.568;27.824;2023-01-10T08:08:32;98551.41;;;10.29;100.00
9672;BME280;4874;43.568;27.824;2023-01-10T08:10:59;98548.44;;;10.32;100.00
9672;BME280;4874;43.568;27.824;2023-01-10T08:13:28;98554.97;;;10.37;100.00
9672;BME280;4874;43.568;27.824;2023-01-10T08:15:56;98524.81;;;10.38;100.00
9672;BME280;4874;43.568;27.824;2023-01-10T08:18:25;98512.16;;;10.32;100.00
9672;BME280;4874;43.568;27.824;2023-01-10T08:20:53;98548.00;;;10.80;100.00
9672;BME280;4874;43.568;27.824;2023-01-10T08:23:20;98560.41;;;10.71;100.00
9672;BME280;4874;43.568;27.824;2023-01-10T08:25:47;98557.31;;;10.84;100.00
9672;BME280;4874;43.568;27.824;2023-01-10T08:28:14;98534.81;;;10.70;100.00
9672;BME280;4874;43.568;27.824;2023-01-10T08:30:41;98540.75;;;10.64;100.00
9672;BME280;4874;43.568;27.824;2023-01-10T08:33:09;98540.13;;;10.70;100.00
9672;BME280;4874;43.568;27.824;2023-01-10T08:35:41;98546.53;;;10.85;100.00
9672;BME280;4874;43.568;27.824;2023-01-10T08:38:09;98543.44;;;10.90;100.00
9672;BME280;4874;43.568;27.824;2023-01-10T08:40:36;98496.41;;;10.82;100.00
9672;BME280;4874;43.568;27.824;2023-01-10T08:43:05;98542.78;;;10.70;100.00
9672;BME280;4874;43.568;27.824;2023-01-10T08:45:33;98537.22;;;11.07;100.00
9672;BME280;4874;43.568;27.824;2023-01-10T08:48:00;98457.31;;;10.41;100.00
9672;BME280;4874;43.568;27.824;2023-01-10T08:50:28;98519.25;;;11.01;100.00
9672;BME280;4874;43.568;27.824;2023-01-10T08:52:58;98487.34;;;10.93;100.00
9672;BME280;4874;43.568;27.824;2023-01-10T08:55:25;98476.34;;;10.88;100.00
9672;BME280;4874;43.568;27.824;2023-01-10T08:57:52;98522.88;;;10.92;100.00
9672;BME280;4874;43.568;27.824;2023-01-10T09:00:19;98526.06;;;11.03;100.00
9672;BME280;4874;43.568;27.824;2023-01-10T09:02:46;98519.16;;;11.18;100.00
9672;BME280;4874;43.568;27.824;2023-01-10T09:05:12;98513.66;;;11.12;100.00
9672;BME280;4874;43.568;27.824;2023-01-10T09:07:52;98508.97;;;11.06;100.00
9672;BME280;4874;43.568;27.824;2023-01-10T09:10:23;98498.56;;;11.12;100.00
9672;BME280;4874;43.568;27.824;2023-01-10T09:12:49;98507.84;;;11.08;100.00
9672;BME280;4874;43.568;27.824;2023-01-10T09:15:24;98502.97;;;11.29;100.00
9672;BME280;4874;43.568;27.824;2023-01-10T09:17:55;98508.13;;;11.31;100.00
9672;BME280;4874;43.568;27.824;2023-01-10T09:20:24;98500.25;;;11.21;100.00
9672;BME280;4874;43.568;27.824;2023-01-10T09:22:51;98489.69;;;11.29;100.00
9672;BME280;4874;43.568;27.824;2023-01-10T09:25:18;98490.03;;;11.34;100.00
9672;BME280;4874;43.568;27.824;2023-01-10T09:27:45;98485.41;;;11.44;100.00
9672;BME280;4874;43.568;27.824;2023-01-10T09:30:12;98488.22;;;11.43;100.00
9672;BME280;4874;43.568;27.824;2023-01-10T09:32:38;98457.78;;;11.29;100.00
9672;BME280;4874;43.568;27.824;2023-01-10T09:35:05;98521.78;;;11.52;100.00
9672;BME280;4874;43.568;27.824;2023-01-10T09:37:33;98490.06;;;11.50;100.00
9672;BME280;4874;43.568;27.824;2023-01-10T09:40:00;98498.19;;;11.49;100.00
9672;BME280;4874;43.568;27.824;2023-01-10T09:47:45;98481.28;;;11.50;100.00
9672;BME280;4874;43.568;27.824;2023-01-10T09:51:16;98466.56;;;11.71;100.00
9672;BME280;4874;43.568;27.824;2023-01-10T09:53:20;98482.72;;;11.86;100.00
9672;BME280;4874;43.568;27.824;2023-01-10T09:55:52;98480.19;;;11.76;100.00
9672;BME280;4874;43.568;27.824;2023-01-10T09:58:24;98467.41;;;11.88;100.00
9672;BME280;4874;43.568;27.824;2023-01-10T10:01:05;98441.31;;;11.75;100.00
9672;BME280;4874;43.568;27.824;2023-01-10T10:06:30;98468.06;;;11.82;100.00
9672;BME280;4874;43.568;27.824;2023-01-10T10:09:00;98440.47;;;11.67;100.00
9672;BME280;4874;43.568;27.824;2023-01-10T10:11:53;98478.25;;;11.95;100.00
9672;BME280;4874;43.568;27.824;2023-01-10T10:14:51;98461.28;;;11.96;100.00
9672;BME280;4874;43.568;27.824;2023-01-10T10:23:26;98395.00;;;11.28;100.00
9672;BME280;4874;43.568;27.824;2023-01-10T10:42:17;98426.38;;;11.82;100.00
9672;BME280;4874;43.568;27.824;2023-01-10T10:44:53;98422.34;;;11.87;100.00
9672;BME280;4874;43.568;27.824;2023-01-10T10:47:22;98413.06;;;11.91;100.00
9672;BME280;4874;43.568;27.824;2023-01-10T10:49:53;98439.81;;;12.05;100.00
9672;BME280;4874;43.568;27.824;2023-01-10T10:52:29;98424.19;;;12.02;100.00
9672;BME280;4874;43.568;27.824;2023-01-10T10:54:58;98418.06;;;12.10;100.00
9672;BME280;4874;43.568;27.824;2023-01-10T10:57:27;98410.72;;;12.20;100.00
9672;BME280;4874;43.568;27.824;2023-01-10T10:59:54;98428.69;;;12.18;100.00
9672;BME280;4874;43.568;27.824;2023-01-10T11:02:28;98414.88;;;12.14;100.00
9672;BME280;4874;43.568;27.824;2023-01-10T11:04:59;98413.56;;;11.86;100.00
9672;BME280;4874;43.568;27.824;2023-01-10T11:07:33;98405.75;;;12.17;100.00
9672;BME280;4874;43.568;27.824;2023-01-10T11:10:12;98425.03;;;11.95;100.00
9672;BME280;4874;43.568;27.824;2023-01-10T11:12:48;98409.22;;;11.85;100.00
9672;BME280;4874;43.568;27.824;2023-01-10T11:15:38;98405.06;;;11.74;100.00
9672;BME280;4874;43.568;27.824;2023-01-10T11:18:10;98410.41;;;11.91;100.00
9672;BME280;4874;43.568;27.824;2023-01-10T11:20:45;98411.22;;;12.07;100.00
9672;BME280;4874;43.568;27.824;2023-01-10T11:23:22;98414.69;;;11.67;100.00
9672;BME280;4874;43.568;27.824;2023-01-10T11:25:49;98368.47;;;11.52;100.00
9672;BME280;4874;43.568;27.824;2023-01-10T11:28:19;98373.34;;;11.65;100.00
9672;BME280;4874;43.568;27.824;2023-01-10T11:30:49;98410.38;;;11.99;100.00
9672;BME280;4874;43.568;27.824;2023-01-10T11:33:35;98409.56;;;11.90;100.00
9672;BME280;4874;43.568;27.824;2023-01-10T11:36:09;98369.94;;;11.47;100.00
9672;BME280;4874;43.568;27.824;2023-01-10T11:38:59;98388.88;;;11.52;100.00
9672;BME280;4874;43.568;27.824;2023-01-10T11:41:27;98379.50;;;11.65;100.00
9672;BME280;4874;43.568;27.824;2023-01-10T11:44:24;98387.72;;;11.38;100.00
9672;BME280;4874;43.568;27.824;2023-01-10T11:46:57;98388.72;;;11.37;100.00
9672;BME280;4874;43.568;27.824;2023-01-10T11:49:33;98396.69;;;11.45;100.00
9672;BME280;4874;43.568;27.824;2023-01-10T11:52:23;98406.47;;;11.29;100.00
9672;BME280;4874;43.568;27.824;2023-01-10T11:54:57;98389.84;;;11.27;100.00
9672;BME280;4874;43.568;27.824;2023-01-10T11:57:28;98399.28;;;11.21;100.00
9672;BME280;4874;43.568;27.824;2023-01-10T12:02:33;98388.22;;;11.34;100.00
9672;BME280;4874;43.568;27.824;2023-01-10T12:05:03;98360.78;;;11.17;100.00
9672;BME280;4874;43.568;27.824;2023-01-10T12:07:55;98383.72;;;11.34;100.00
9672;BME280;4874;43.568;27.824;2023-01-10T12:10:24;98376.75;;;11.33;100.00
9672;BME280;4874;43.568;27.824;2023-01-10T12:12:57;98374.63;;;11.45;100.00
9672;BME280;4874;43.568;27.824;2023-01-10T12:15:30;98384.72;;;11.33;100.00
9672;BME280;4874;43.568;27.824;2023-01-10T12:18:01;98354.13;;;11.13;100.00
9672;BME280;4874;43.568;27.824;2023-01-10T12:20:33;98385.06;;;11.38;100.00
9672;BME280;4874;43.568;27.824;2023-01-10T12:23:07;98371.72;;;11.14;100.00
9672;BME280;4874;43.568;27.824;2023-01-10T12:25:39;98384.53;;;11.27;100.00
9672;BME280;4874;43.568;27.824;2023-01-10T12:28:16;98381.53;;;11.30;100.00
9672;BME280;4874;43.568;27.824;2023-01-10T12:30:43;98385.25;;;11.45;100.00
9672;BME280;4874;43.568;27.824;2023-01-10T12:33:20;98389.06;;;11.34;100.00
9672;BME280;4874;43.568;27.824;2023-01-10T12:38:54;98375.59;;;11.44;100.00
9672;BME280;4874;43.568;27.824;2023-01-10T12:41:44;98392.84;;;11.40;100.00
9672;BME280;4874;43.568;27.824;2023-01-10T12:44:39;98327.25;;;11.24;100.00
9672;BME280;4874;43.568;27.824;2023-01-10T12:47:18;98389.72;;;11.44;100.00
9672;BME280;4874;43.568;27.824;2023-01-10T12:50:00;98385.38;;;11.35;100.00
9672;BME280;4874;43.568;27.824;2023-01-10T12:55:01;98381.09;;;11.50;100.00
9672;BME280;4874;43.568;27.824;2023-01-10T12:57:37;98386.53;;;11.25;100.00
9672;BME280;4874;43.568;27.824;2023-01-10T13:00:06;98396.13;;;11.18;100.00
9672;BME280;4874;43.568;27.824;2023-01-10T13:02:42;98395.00;;;11.28;100.00
9672;BME280;4874;43.568;27.824;2023-01-10T13:05:22;98393.34;;;11.27;100.00
9672;BME280;4874;43.568;27.824;2023-01-10T13:07:51;98387.53;;;11.24;100.00
9672;BME280;4874;43.568;27.824;2023-01-10T13:10:20;98388.31;;;11.16;100.00
9672;BME280;4874;43.568;27.824;2023-01-10T13:12:58;98405.78;;;11.27;100.00
9672;BME280;4874;43.568;27.824;2023-01-10T13:18:29;98414.03;;;11.08;100.00
9672;BME280;4874;43.568;27.824;2023-01-10T13:21:11;98418.31;;;11.01;100.00
9672;BME280;4874;43.568;27.824;2023-01-10T13:23:49;98422.50;;;11.03;100.00
9672;BME280;4874;43.568;27.824;2023-01-10T13:26:20;98427.97;;;11.02;100.00
9672;BME280;4874;43.568;27.824;2023-01-10T13:28:54;98407.91;;;11.07;100.00
9672;BME280;4874;43.568;27.824;2023-01-10T13:31:28;98411.69;;;11.05;100.00
9672;BME280;4874;43.568;27.824;2023-01-10T13:34:26;98417.91;;;10.80;100.00
9672;BME280;4874;43.568;27.824;2023-01-10T13:37:01;98402.44;;;10.75;100.00
9672;BME280;4874;43.568;27.824;2023-01-10T13:39:34;98428.41;;;10.89;100.00
9672;BME280;4874;43.568;27.824;2023-01-10T14:00:44;98383.50;;;10.70;100.00
9672;BME280;4874;43.568;27.824;2023-01-10T14:03:55;98398.75;;;10.68;100.00
9672;BME280;4874;43.568;27.824;2023-01-10T14:08:59;98367.56;;;10.62;100.00
9672;BME280;4874;43.568;27.824;2023-01-10T14:11:45;98358.22;;;10.50;100.00
9672;BME280;4874;43.568;27.824;2023-01-10T14:14:25;98383.06;;;10.75;100.00
9672;BME280;4874;43.568;27.824;2023-01-10T14:19:36;98414.78;;;10.84;100.00
9672;BME280;4874;43.568;27.824;2023-01-10T14:22:05;98419.72;;;10.79;100.00
9672;BME280;4874;43.568;27.824;2023-01-10T14:24:40;98425.72;;;10.81;100.00
9672;BME280;4874;43.568;27.824;2023-01-10T14:27:16;98432.31;;;10.77;100.00
9672;BME280;4874;43.568;27.824;2023-01-10T14:29:57;98456.19;;;10.43;100.00
9672;BME280;4874;43.568;27.824;2023-01-10T14:32:36;98445.66;;;10.34;100.00
9672;BME280;4874;43.568;27.824;2023-01-10T14:35:08;98458.22;;;10.49;100.00
9672;BME280;4874;43.568;27.824;2023-01-10T14:37:45;98468.72;;;10.33;100.00
9672;BME280;4874;43.568;27.824;2023-01-10T14:40:37;98475.28;;;10.21;100.00
9672;BME280;4874;43.568;27.824;2023-01-10T14:43:16;98479.41;;;10.24;100.00
9672;BME280;4874;43.568;27.824;2023-01-10T14:45:48;98472.53;;;10.13;100.00
9672;BME280;4874;43.568;27.824;2023-01-10T14:48:45;98468.81;;;10.24;100.00
9672;BME280;4874;43.568;27.824;2023-01-10T14:51:28;98473.38;;;10.14;100.00
9672;BME280;4874;43.568;27.824;2023-01-10T14:54:01;98484.81;;;10.14;100.00
9672;BME280;4874;43.568;27.824;2023-01-10T14:56:41;98475.19;;;10.13;100.00
9672;BME280;4874;43.568;27.824;2023-01-10T15:02:15;98480.50;;;10.13;100.00
9672;BME280;4874;43.568;27.824;2023-01-10T15:05:16;98489.03;;;10.07;100.00
9672;BME280;4874;43.568;27.824;2023-01-10T15:07:43;98485.94;;;10.29;100.00
9672;BME280;4874;43.568;27.824;2023-01-10T15:12:50;98492.53;;;10.08;100.00
9672;BME280;4874;43.568;27.824;2023-01-10T15:15:21;98494.91;;;10.11;100.00
9672;BME280;4874;43.568;27.824;2023-01-10T15:17:50;98494.94;;;10.01;100.00
9672;BME280;4874;43.568;27.824;2023-01-10T15:20:18;98493.34;;;9.91;100.00
9672;BME280;4874;43.568;27.824;2023-01-10T15:22:49;98496.31;;;9.88;100.00